| time (UTC) | temp C | wind direction | speed KPH | gust KPH | rain 1hr cm | rain 24hr cm | rain mn cm | humidity % | barometer mb |
| 20260507120109 | -17 | 62 | 1.6 | 1.6 | 0.00 | 0.00 | 0.10 | 71 | 1027.0 |
| 20260507115608 | -17 | 203 | 1.6 | 1.6 | 0.00 | 0.00 | 0.10 | 71 | 1027.2 |
| 20260507115108 | -17 | 186 | 0.0 | 3.2 | 0.00 | 0.00 | 0.10 | 73 | 1027.2 |
| 20260507114609 | -17 | 191 | 0.0 | 1.6 | 0.00 | 0.00 | 0.10 | 70 | 1027.2 |
| 20260507114108 | -17 | 211 | 8.0 | 9.7 | 0.00 | 0.00 | 0.10 | 71 | 1027.2 |
| 20260507113609 | -17 | 296 | 6.4 | 8.0 | 0.00 | 0.00 | 0.10 | 68 | 1027.5 |
| 20260507113109 | -17 | 277 | 6.4 | 9.7 | 0.00 | 0.00 | 0.10 | 69 | 1027.4 |
| 20260507112609 | -17 | 269 | 4.8 | 8.0 | 0.00 | 0.00 | 0.10 | 69 | 1027.4 |
| 20260507112108 | -17 | 144 | 1.6 | 3.2 | 0.00 | 0.00 | 0.10 | 71 | 1027.2 |
| 20260507111608 | -17 | 336 | 1.6 | 3.2 | 0.00 | 0.00 | 0.10 | 68 | 1027.5 |
| 20260507111108 | -17 | 174 | 1.6 | 3.2 | 0.00 | 0.00 | 0.10 | 68 | 1027.2 |
| 20260507110608 | -17 | 199 | 0.0 | 1.6 | 0.00 | 0.00 | 0.10 | 70 | 1027.2 |
| 20260507110109 | -17 | 354 | 1.6 | 3.2 | 0.00 | 0.00 | 0.10 | 68 | 1027.2 |
| 20260507105608 | -17 | 307 | 3.2 | 4.8 | 0.00 | 0.00 | 0.10 | 68 | 1027.2 |
| 20260507105109 | -17 | 204 | 1.6 | 3.2 | 0.00 | 0.00 | 0.10 | 74 | 1027.2 |
| 20260507104609 | -17 | 199 | 1.6 | 3.2 | 0.00 | 0.00 | 0.10 | 71 | 1027.2 |
| 20260507104109 | -17 | 198 | 0.0 | 1.6 | 0.00 | 0.00 | 0.10 | 71 | 1027.4 |
| 20260507103609 | -17 | 171 | 3.2 | 8.0 | 0.00 | 0.00 | 0.10 | 70 | 1027.4 |
| 20260507103110 | -17 | 161 | 3.2 | 4.8 | 0.00 | 0.00 | 0.10 | 71 | 1027.4 |
| 20260507102609 | -17 | 178 | 0.0 | 1.6 | 0.00 | 0.00 | 0.10 | 68 | 1027.2 |
| 20260507102108 | -17 | 207 | 1.6 | 3.2 | 0.00 | 0.00 | 0.10 | 72 | 1027.4 |
| 20260507101608 | -17 | 33 | 1.6 | 4.8 | 0.00 | 0.00 | 0.10 | 72 | 1027.4 |
| 20260507101109 | -17 | 76 | 1.6 | 3.2 | 0.00 | 0.00 | 0.10 | 74 | 1027.2 |
| 20260507100609 | -17 | 359 | 3.2 | 4.8 | 0.00 | 0.00 | 0.10 | 74 | 1027.4 |
| 20260507100109 | -17 | 159 | 0.0 | 3.2 | 0.00 | 0.00 | 0.10 | 72 | 1027.2 |
| 20260507095608 | -17 | 176 | 3.2 | 4.8 | 0.00 | 0.00 | 0.10 | 70 | 1027.2 |
| 20260507095109 | -17 | 150 | 3.2 | 4.8 | 0.00 | 0.00 | 0.10 | 67 | 1027.4 |
| 20260507094609 | -17 | 204 | 0.0 | 1.6 | 0.00 | 0.00 | 0.10 | 72 | 1027.2 |
| 20260507094109 | -17 | 229 | 0.0 | 1.6 | 0.00 | 0.00 | 0.10 | 76 | 1027.2 |
| 20260507093609 | -17 | 246 | 4.8 | 6.4 | 0.00 | 0.00 | 0.10 | 71 | 1027.5 |
| 20260507093109 | -17 | 165 | 1.6 | 3.2 | 0.00 | 0.00 | 0.10 | 70 | 1027.2 |
| 20260507092609 | -17 | 206 | 1.6 | 3.2 | 0.00 | 0.00 | 0.10 | 69 | 1027.2 |
| 20260507092108 | -17 | 240 | 0.0 | 3.2 | 0.00 | 0.00 | 0.10 | 71 | 1027.0 |
| 20260507091608 | -17 | 174 | 1.6 | 3.2 | 0.00 | 0.00 | 0.10 | 71 | 1027.4 |
| 20260507091109 | -17 | 202 | 0.0 | 1.6 | 0.00 | 0.00 | 0.10 | 73 | 1027.2 |
| 20260507090609 | -17 | 174 | 0.0 | 1.6 | 0.00 | 0.00 | 0.10 | 75 | 1027.4 |
| 20260507090108 | -17 | 200 | 0.0 | 1.6 | 0.00 | 0.00 | 0.10 | 76 | 1027.2 |
| 20260507085609 | -17 | 210 | 3.2 | 4.8 | 0.00 | 0.00 | 0.10 | 76 | 1027.2 |
| 20260507085109 | -17 | 202 | 6.4 | 9.7 | 0.00 | 0.00 | 0.10 | 76 | 1027.2 |
| 20260507084609 | -17 | 191 | 1.6 | 3.2 | 0.00 | 0.00 | 0.10 | 77 | 1027.0 |
| 20260507084108 | -17 | 66 | 1.6 | 3.2 | 0.00 | 0.00 | 0.10 | 76 | 1027.0 |
| 20260507083608 | -17 | 115 | 3.2 | 8.0 | 0.00 | 0.00 | 0.10 | 76 | 1026.7 |
| 20260507083108 | -17 | 209 | 0.0 | 1.6 | 0.00 | 0.00 | 0.10 | 77 | 1026.9 |
| 20260507082609 | -17 | 262 | 1.6 | 4.8 | 0.00 | 0.00 | 0.10 | 78 | 1026.9 |
| 20260507082109 | -17 | 206 | 0.0 | 1.6 | 0.00 | 0.00 | 0.10 | 79 | 1026.7 |
| 20260507081608 | -17 | 199 | 1.6 | 3.2 | 0.00 | 0.00 | 0.10 | 81 | 1026.9 |
| 20260507081108 | -17 | 202 | 0.0 | 1.6 | 0.00 | 0.00 | 0.10 | 83 | 1026.9 |
| 20260507080609 | -17 | 206 | 4.8 | 6.4 | 0.00 | 0.00 | 0.10 | 83 | 1026.7 |
| 20260507080109 | -17 | 195 | 1.6 | 3.2 | 0.00 | 0.00 | 0.10 | 82 | 1026.7 |
| 20260507075609 | -17 | 219 | 0.0 | 1.6 | 0.10 | 0.00 | 0.10 | 85 | 1026.7 |
| 20260507075108 | -17 | 220 | 4.8 | 8.0 | 0.10 | 0.00 | 0.10 | 85 | 1026.7 |
| 20260507074608 | -17 | 202 | 1.6 | 3.2 | 0.10 | 0.00 | 0.10 | 88 | 1026.5 |
| 20260507074109 | -17 | 194 | 1.6 | 3.2 | 0.10 | 0.00 | 0.10 | 88 | 1026.7 |
| 20260507073608 | -17 | 186 | 0.0 | 1.6 | 0.08 | 0.00 | 0.08 | 88 | 1026.7 |
| 20260507073108 | -17 | 191 | 0.0 | 1.6 | 0.08 | 0.00 | 0.08 | 86 | 1026.7 |
| 20260507072608 | -17 | 201 | 0.0 | 1.6 | 0.08 | 0.00 | 0.08 | 85 | 1026.5 |
| 20260507072109 | -17 | 221 | 1.6 | 3.2 | 0.08 | 0.00 | 0.08 | 85 | 1026.7 |
| 20260507071610 | -17 | 192 | 0.0 | 0.0 | 0.00 | 0.00 | 0.00 | 80 | 1026.5 |
| 20260507071109 | -17 | 203 | 0.0 | 1.6 | 0.00 | 0.00 | 0.00 | 77 | 1026.5 |
| 20260507070608 | -17 | 200 | 0.0 | 1.6 | 0.00 | 0.00 | 0.00 | 75 | 1026.5 |
| 20260507070108 | -17 | 197 | 0.0 | 0.0 | 0.00 | 0.00 | 0.00 | 78 | 1026.5 |
| 20260507065609 | -17 | 203 | 0.0 | 0.0 | 0.00 | 0.00 | 0.00 | 76 | 1026.4 |
| 20260507065109 | -17 | 257 | 0.0 | 3.2 | 0.00 | 0.00 | 0.00 | 82 | 1026.4 |
| 20260507064609 | -17 | 200 | 0.0 | 1.6 | 0.00 | 0.00 | 0.00 | 84 | 1026.2 |
| 20260507064108 | -17 | 198 | 0.0 | 1.6 | 0.00 | 0.00 | 0.00 | 84 | 1026.2 |
| 20260507063609 | -17 | 210 | 1.6 | 3.2 | 0.00 | 0.00 | 0.00 | 84 | 1026.0 |
| 20260507063109 | -17 | 227 | 0.0 | 1.6 | 0.00 | 0.00 | 0.00 | 84 | 1026.2 |
| 20260507062609 | -17 | 184 | 0.0 | 0.0 | 0.00 | 0.00 | 0.00 | 83 | 1026.0 |
| 20260507062108 | -17 | 204 | 0.0 | 0.0 | 0.00 | 0.00 | 0.00 | 83 | 1026.0 |
| 20260507061608 | -17 | 197 | 0.0 | 0.0 | 0.00 | 0.00 | 0.00 | 83 | 1026.0 |
| 20260507061109 | -17 | 192 | 0.0 | 0.0 | 0.00 | 0.00 | 0.00 | 83 | 1026.2 |
| 20260507060609 | -17 | 200 | 0.0 | 0.0 | 0.00 | 0.00 | 0.00 | 81 | 1026.0 |
| 20260507060109 | -17 | 196 | 0.0 | 1.6 | 0.00 | 0.00 | 0.00 | 82 | 1026.0 |
| 20260507055609 | -17 | 201 | 0.0 | 0.0 | 0.00 | 0.00 | 0.00 | 81 | 1026.0 |
| 20260507055109 | -17 | 199 | 1.6 | 3.2 | 0.00 | 0.00 | 0.00 | 82 | 1026.0 |
| 20260507054609 | -17 | 213 | 1.6 | 3.2 | 0.00 | 0.00 | 0.00 | 85 | 1026.0 |
| 20260507054108 | -17 | 189 | 0.0 | 3.2 | 0.00 | 0.00 | 0.00 | 86 | 1026.0 |
| 20260507053609 | -17 | 220 | 0.0 | 1.6 | 0.00 | 0.00 | 0.00 | 85 | 1026.0 |
| 20260507053109 | -17 | 209 | 0.0 | 1.6 | 0.00 | 0.00 | 0.00 | 86 | 1025.7 |
| 20260507052608 | -17 | 197 | 0.0 | 1.6 | 0.00 | 0.00 | 0.00 | 87 | 1025.7 |
| 20260507052109 | -17 | 210 | 1.6 | 3.2 | 0.00 | 0.00 | 0.00 | 88 | 1025.7 |
| 20260507051609 | -17 | 214 | 0.0 | 1.6 | 0.00 | 0.00 | 0.00 | 88 | 1025.7 |
| 20260507051109 | -17 | 220 | 1.6 | 3.2 | 0.00 | 0.00 | 0.00 | 88 | 1025.7 |
| 20260507050608 | -17 | 202 | 0.0 | 1.6 | 0.00 | 0.00 | 0.00 | 89 | 1025.5 |
| 20260507050108 | -17 | 197 | 1.6 | 1.6 | 0.00 | 0.00 | 0.00 | 88 | 1025.5 |
| 20260507045609 | -17 | 202 | 0.0 | 1.6 | 0.00 | 0.00 | 0.00 | 88 | 1025.4 |
| 20260507045108 | -17 | 217 | 0.0 | 1.6 | 0.00 | 0.00 | 0.00 | 88 | 1025.4 |
| 20260507044608 | -17 | 209 | 0.0 | 1.6 | 0.00 | 0.00 | 0.00 | 89 | 1025.4 |
| 20260507044108 | -17 | 197 | 0.0 | 1.6 | 0.00 | 0.00 | 0.00 | 89 | 1025.5 |
| 20260507043608 | -17 | 199 | 1.6 | 3.2 | 0.00 | 0.00 | 0.00 | 90 | 1025.5 |
| 20260507043109 | -17 | 199 | 4.8 | 6.4 | 0.00 | 0.00 | 0.00 | 89 | 1025.2 |
| 20260507042609 | -17 | 189 | 3.2 | 4.8 | 0.00 | 0.00 | 0.00 | 89 | 1025.2 |
| 20260507042108 | -17 | 211 | 0.0 | 1.6 | 0.00 | 0.00 | 0.00 | 89 | 1025.2 |
| 20260507041609 | -17 | 190 | 0.0 | 1.6 | 0.00 | 0.00 | 0.00 | 88 | 1025.4 |
| 20260507041109 | -17 | 225 | 1.6 | 3.2 | 0.00 | 0.00 | 0.00 | 88 | 1025.4 |
| 20260507040609 | -17 | 199 | 1.6 | 3.2 | 0.00 | 0.00 | 0.00 | 88 | 1025.2 |
| 20260507040109 | -17 | 263 | 4.8 | 6.4 | 0.00 | 0.00 | 0.00 | 88 | 1025.2 |
| 20260507035609 | -17 | 226 | 3.2 | 4.8 | 0.00 | 0.00 | 0.00 | 89 | 1025.2 |
| 20260507035108 | -17 | 228 | 1.6 | 3.2 | 0.00 | 0.00 | 0.00 | 89 | 1025.4 |
| 20260507034608 | -17 | 206 | 0.0 | 1.6 | 0.00 | 0.00 | 0.00 | 90 | 1025.2 |
| 20260507034108 | -17 | 220 | 3.2 | 4.8 | 0.00 | 0.00 | 0.00 | 90 | 1025.2 |
| 20260507033609 | -17 | 213 | 1.6 | 3.2 | 0.00 | 0.00 | 0.00 | 90 | 1025.4 |
| 20260507033109 | -17 | 219 | 1.6 | 1.6 | 0.00 | 0.00 | 0.00 | 90 | 1025.4 |
| 20260507032608 | -17 | 237 | 3.2 | 4.8 | 0.00 | 0.00 | 0.00 | 89 | 1025.2 |
| 20260507032109 | -17 | 227 | 1.6 | 3.2 | 0.00 | 0.00 | 0.00 | 90 | 1025.2 |
| 20260507031608 | -17 | 222 | 3.2 | 4.8 | 0.00 | 0.00 | 0.00 | 89 | 1025.0 |
| 20260507031109 | -17 | 204 | 3.2 | 4.8 | 0.00 | 0.00 | 0.00 | 89 | 1025.0 |
| 20260507030609 | -17 | 222 | 3.2 | 6.4 | 0.00 | 0.00 | 0.00 | 90 | 1025.2 |
| 20260507030108 | -17 | 227 | 4.8 | 6.4 | 0.00 | 0.00 | 0.00 | 91 | 1025.2 |
| 20260507025609 | -17 | 214 | 3.2 | 4.8 | 0.00 | 0.00 | 0.00 | 91 | 1025.2 |
| 20260507025109 | -17 | 209 | 0.0 | 1.6 | 0.00 | 0.00 | 0.00 | 90 | 1025.0 |
| 20260507024608 | -17 | 210 | 4.8 | 8.0 | 0.00 | 0.00 | 0.00 | 90 | 1025.2 |
| 20260507024108 | -17 | 203 | 1.6 | 3.2 | 0.00 | 0.00 | 0.00 | 89 | 1025.2 |
| 20260507023608 | -17 | 195 | 1.6 | 3.2 | 0.00 | 0.00 | 0.00 | 89 | 1025.2 |
| 20260507023108 | -17 | 211 | 3.2 | 4.8 | 0.00 | 0.00 | 0.00 | 89 | 1025.2 |
| 20260507022608 | -17 | 242 | 3.2 | 4.8 | 0.00 | 0.00 | 0.00 | 90 | 1025.2 |
| 20260507022108 | -17 | 195 | 3.2 | 4.8 | 0.00 | 0.00 | 0.00 | 90 | 1025.2 |
| 20260507021610 | -17 | 216 | 3.2 | 3.2 | 0.00 | 0.00 | 0.00 | 91 | 1025.2 |
| 20260507021109 | -17 | 222 | 1.6 | 3.2 | 0.00 | 0.00 | 0.00 | 90 | 1025.2 |
| 20260507020610 | -17 | 231 | 4.8 | 6.4 | 0.00 | 0.00 | 0.00 | 90 | 1025.0 |
| 20260507020109 | -17 | 216 | 0.0 | 1.6 | 0.00 | 0.00 | 0.00 | 90 | 1025.2 |
| 20260507015609 | -17 | 212 | 1.6 | 1.6 | 0.00 | 0.00 | 0.00 | 89 | 1025.0 |
| 20260507015109 | -17 | 204 | 1.6 | 3.2 | 0.00 | 0.00 | 0.00 | 90 | 1025.2 |
| 20260507014609 | -17 | 230 | 1.6 | 4.8 | 0.00 | 0.00 | 0.00 | 89 | 1025.0 |
| 20260507014108 | -17 | 198 | 3.2 | 4.8 | 0.00 | 0.00 | 0.00 | 90 | 1025.0 |
| 20260507013608 | -17 | 205 | 1.6 | 3.2 | 0.00 | 0.00 | 0.00 | 90 | 1025.2 |
| 20260507012608 | -17 | 228 | 1.6 | 1.6 | 0.00 | 0.00 | 0.00 | 91 | 1025.2 |
| 20260507012109 | -17 | 200 | 0.0 | 1.6 | 0.00 | 0.00 | 0.00 | 90 | 1025.5 |
| 20260507011608 | -17 | 257 | 4.8 | 6.4 | 0.00 | 0.00 | 0.00 | 90 | 1025.2 |
| 20260507011109 | -17 | 229 | 1.6 | 3.2 | 0.00 | 0.00 | 0.00 | 90 | 1025.2 |
| 20260507010609 | -17 | 213 | 1.6 | 3.2 | 0.00 | 0.00 | 0.00 | 89 | 1025.2 |
| 20260507010108 | -17 | 200 | 1.6 | 3.2 | 0.00 | 0.00 | 0.00 | 90 | 1025.2 |
| 20260507005608 | -17 | 245 | 4.8 | 6.4 | 0.00 | 0.00 | 0.00 | 90 | 1025.2 |
| 20260507005108 | -17 | 236 | 3.2 | 4.8 | 0.00 | 0.00 | 0.00 | 90 | 1025.2 |
| 20260507004609 | -17 | 250 | 3.2 | 3.2 | 0.00 | 0.00 | 0.00 | 90 | 1025.2 |
| 20260507004109 | -17 | 207 | 3.2 | 3.2 | 0.00 | 0.00 | 0.00 | 90 | 1025.2 |
| 20260507003608 | -17 | 218 | 3.2 | 6.4 | 0.00 | 0.00 | 0.00 | 90 | 1025.4 |
| 20260507003108 | -17 | 216 | 1.6 | 3.2 | 0.00 | 0.00 | 0.00 | 89 | 1025.4 |
| 20260507002608 | -17 | 197 | 3.2 | 6.4 | 0.00 | 0.00 | 0.00 | 89 | 1025.2 |
| 20260507002109 | -17 | 216 | 3.2 | 4.8 | 0.00 | 0.00 | 0.00 | 89 | 1025.2 |
| 20260507001608 | -17 | 248 | 4.8 | 6.4 | 0.00 | 0.00 | 0.00 | 89 | 1025.2 |
| 20260507001108 | -17 | 207 | 1.6 | 3.2 | 0.00 | 0.00 | 0.00 | 89 | 1025.2 |
| 20260507000608 | -17 | 209 | 0.0 | 1.6 | 0.00 | 0.00 | 0.00 | 89 | 1025.2 |
| 20260507000109 | -17 | 220 | 3.2 | 6.4 | 0.00 | 0.00 | 0.00 | 88 | 1025.2 |
| 20260506235608 | -17 | 203 | 1.6 | 3.2 | 0.00 | 0.00 | 0.00 | 89 | 1025.2 |
| 20260506235108 | -17 | 232 | 3.2 | 4.8 | 0.00 | 0.00 | 0.00 | 89 | 1025.4 |
| 20260506234609 | -17 | 239 | 3.2 | 3.2 | 0.00 | 0.00 | 0.00 | 89 | 1025.4 |
| 20260506234108 | -17 | 212 | 1.6 | 3.2 | 0.00 | 0.00 | 0.00 | 89 | 1025.4 |
| 20260506233608 | -17 | 255 | 1.6 | 3.2 | 0.00 | 0.00 | 0.00 | 89 | 1025.5 |
| 20260506233109 | -17 | 206 | 0.0 | 1.6 | 0.00 | 0.00 | 0.00 | 90 | 1025.5 |
| 20260506232610 | -17 | 199 | 0.0 | 1.6 | 0.00 | 0.00 | 0.00 | 89 | 1025.5 |
| 20260506232108 | -17 | 214 | 1.6 | 3.2 | 0.00 | 0.00 | 0.00 | 90 | 1025.4 |
| 20260506231609 | -17 | 209 | 3.2 | 4.8 | 0.00 | 0.00 | 0.00 | 89 | 1025.4 |
| 20260506231109 | -17 | 196 | 1.6 | 3.2 | 0.00 | 0.00 | 0.00 | 90 | 1025.5 |
| 20260506230609 | -17 | 246 | 3.2 | 4.8 | 0.00 | 0.00 | 0.00 | 90 | 1025.5 |
| 20260506230109 | -17 | 267 | 3.2 | 6.4 | 0.00 | 0.00 | 0.00 | 90 | 1025.5 |
| 20260506225609 | -17 | 194 | 0.0 | 0.0 | 0.00 | 0.00 | 0.00 | 90 | 1025.5 |
| 20260506225110 | -17 | 235 | 3.2 | 4.8 | 0.00 | 0.00 | 0.00 | 90 | 1025.5 |
| 20260506224608 | -17 | 198 | 3.2 | 4.8 | 0.00 | 0.00 | 0.00 | 90 | 1025.4 |
| 20260506224109 | -17 | 203 | 3.2 | 6.4 | 0.00 | 0.00 | 0.00 | 90 | 1025.4 |
| 20260506223610 | -17 | 198 | 1.6 | 3.2 | 0.00 | 0.00 | 0.00 | 91 | 1025.4 |
| 20260506223109 | -17 | 230 | 1.6 | 3.2 | 0.00 | 0.00 | 0.00 | 90 | 1025.2 |
| 20260506222608 | -17 | 255 | 1.6 | 6.4 | 0.00 | 0.00 | 0.00 | 90 | 1025.2 |
| 20260506222108 | -17 | 195 | 1.6 | 3.2 | 0.00 | 0.00 | 0.00 | 90 | 1025.4 |
| 20260506221609 | -17 | 190 | 3.2 | 4.8 | 0.00 | 0.00 | 0.00 | 91 | 1025.2 |
| 20260506221108 | -17 | 248 | 1.6 | 3.2 | 0.00 | 0.00 | 0.00 | 91 | 1025.5 |
| 20260506220609 | -17 | 197 | 0.0 | 1.6 | 0.00 | 0.00 | 0.00 | 91 | 1025.4 |
| 20260506220108 | -17 | 204 | 0.0 | 1.6 | 0.00 | 0.00 | 0.00 | 91 | 1025.4 |
| 20260506215608 | -17 | 198 | 1.6 | 3.2 | 0.00 | 0.00 | 0.15 | 91 | 1025.5 |
| 20260506215108 | -17 | 276 | 3.2 | 4.8 | 0.00 | 0.00 | 0.15 | 91 | 1025.2 |
| 20260506214608 | -17 | 211 | 3.2 | 4.8 | 0.00 | 0.00 | 0.15 | 91 | 1025.2 |
| 20260506214109 | -17 | 248 | 1.6 | 3.2 | 0.00 | 0.00 | 0.15 | 92 | 1025.4 |
| 20260506213609 | -17 | 202 | 0.0 | 1.6 | 0.00 | 0.00 | 0.15 | 92 | 1025.2 |
| 20260506213109 | -17 | 197 | 1.6 | 3.2 | 0.00 | 0.00 | 0.15 | 92 | 1025.4 |
| 20260506212608 | -17 | 190 | 0.0 | 1.6 | 0.00 | 0.00 | 0.15 | 92 | 1025.4 |
| 20260506212108 | -17 | 198 | 0.0 | 1.6 | 0.00 | 0.00 | 0.15 | 92 | 1025.5 |
| 20260506211609 | -17 | 194 | 0.0 | 1.6 | 0.00 | 0.00 | 0.15 | 93 | 1025.2 |
| 20260506211108 | -17 | 205 | 0.0 | 0.0 | 0.00 | 0.00 | 0.15 | 93 | 1025.4 |
| 20260506210608 | -17 | 208 | 0.0 | 1.6 | 0.00 | 0.00 | 0.15 | 92 | 1025.5 |
| 20260506210108 | -17 | 220 | 1.6 | 3.2 | 0.00 | 0.00 | 0.15 | 92 | 1025.5 |
| 20260506205608 | -17 | 226 | 1.6 | 1.6 | 0.00 | 0.00 | 0.15 | 93 | 1025.4 |
| 20260506205108 | -17 | 235 | 1.6 | 3.2 | 0.00 | 0.00 | 0.15 | 93 | 1025.4 |
| 20260506204608 | -17 | 240 | 0.0 | 3.2 | 0.00 | 0.00 | 0.15 | 93 | 1025.2 |
| 20260506204109 | -17 | 199 | 0.0 | 0.0 | 0.00 | 0.00 | 0.15 | 94 | 1025.4 |
| 20260506203608 | -17 | 198 | 0.0 | 1.6 | 0.00 | 0.00 | 0.15 | 95 | 1025.5 |
| 20260506203109 | -17 | 212 | 0.0 | 1.6 | 0.00 | 0.00 | 0.15 | 95 | 1025.5 |
| 20260506202609 | -17 | 250 | 4.8 | 4.8 | 0.00 | 0.00 | 0.15 | 95 | 1025.4 |
| 20260506202109 | -17 | 224 | 1.6 | 3.2 | 0.00 | 0.00 | 0.15 | 96 | 1025.2 |
| 20260506201609 | -17 | 206 | 0.0 | 1.6 | 0.00 | 0.00 | 0.15 | 96 | 1025.2 |
| 20260506201109 | -17 | 216 | 1.6 | 3.2 | 0.00 | 0.00 | 0.15 | 96 | 1025.0 |
| 20260506200608 | -17 | 213 | 3.2 | 4.8 | 0.00 | 0.00 | 0.15 | 97 | 1025.2 |
| 20260506200108 | -17 | 215 | 1.6 | 3.2 | 0.00 | 0.00 | 0.15 | 97 | 1025.0 |
| 20260506195609 | -17 | 229 | 4.8 | 4.8 | 0.00 | 0.00 | 0.15 | 97 | 1025.0 |
| 20260506195108 | -17 | 220 | 1.6 | 1.6 | 0.00 | 0.00 | 0.15 | 97 | 1024.9 |
| 20260506194609 | -17 | 204 | 0.0 | 1.6 | 0.00 | 0.00 | 0.15 | 98 | 1024.7 |
| 20260506194108 | -17 | 204 | 1.6 | 3.2 | 0.00 | 0.00 | 0.15 | 98 | 1024.9 |
| 20260506193609 | -17 | 197 | 0.0 | 0.0 | 0.00 | 0.00 | 0.15 | 98 | 1024.7 |
| 20260506193109 | -17 | 195 | 0.0 | 0.0 | 0.00 | 0.00 | 0.15 | 98 | 1024.5 |
| 20260506192608 | -17 | 196 | 3.2 | 6.4 | 0.00 | 0.00 | 0.15 | 98 | 1024.7 |
| 20260506192108 | -17 | 266 | 4.8 | 8.0 | 0.00 | 0.00 | 0.15 | 98 | 1024.5 |
| 20260506191608 | -17 | 199 | 0.0 | 1.6 | 0.00 | 0.00 | 0.15 | 98 | 1024.5 |
| 20260506191108 | -17 | 198 | 0.0 | 0.0 | 0.00 | 0.00 | 0.15 | 98 | 1024.2 |
| 20260506190609 | -17 | 196 | 0.0 | 1.6 | 0.00 | 0.00 | 0.15 | 98 | 1024.5 |
| 20260506190109 | -17 | 194 | 0.0 | 1.6 | 0.00 | 0.00 | 0.15 | 98 | 1024.2 |
| 20260506185608 | -17 | 193 | 0.0 | 1.6 | 0.00 | 0.00 | 0.15 | 98 | 1024.0 |
| 20260506185108 | -17 | 189 | 0.0 | 0.0 | 0.00 | 0.00 | 0.15 | 98 | 1024.2 |
| 20260506184609 | -17 | 189 | 0.0 | 1.6 | 0.00 | 0.00 | 0.15 | 98 | 1024.0 |
| 20260506184109 | -17 | 45 | 0.0 | 1.6 | 0.00 | 0.00 | 0.15 | 98 | 1024.0 |
| 20260506183609 | -17 | 189 | 1.6 | 3.2 | 0.00 | 0.00 | 0.15 | 98 | 1024.0 |
| 20260506183109 | -17 | 219 | 3.2 | 4.8 | 0.00 | 0.00 | 0.15 | 98 | 1024.0 |
| 20260506182608 | -17 | 199 | 0.0 | 0.0 | 0.00 | 0.00 | 0.15 | 98 | 1023.8 |
| 20260506182109 | -17 | 186 | 0.0 | 1.6 | 0.00 | 0.00 | 0.15 | 98 | 1023.8 |
| 20260506181609 | -17 | 195 | 0.0 | 1.6 | 0.00 | 0.00 | 0.15 | 98 | 1023.7 |
| 20260506181108 | -17 | 147 | 0.0 | 3.2 | 0.00 | 0.00 | 0.15 | 98 | 1023.7 |
| 20260506180608 | -17 | 100 | 0.0 | 1.6 | 0.00 | 0.00 | 0.15 | 98 | 1023.6 |
| 20260506180109 | -17 | 188 | 0.0 | 1.6 | 0.00 | 0.00 | 0.15 | 98 | 1023.7 |
| 20260506175609 | -17 | 162 | 0.0 | 1.6 | 0.00 | 0.00 | 0.15 | 98 | 1023.7 |
| 20260506175109 | -17 | 38 | 1.6 | 3.2 | 0.00 | 0.00 | 0.15 | 98 | 1023.6 |
| 20260506174608 | -17 | 85 | 3.2 | 4.8 | 0.00 | 0.00 | 0.15 | 98 | 1023.5 |
| 20260506174109 | -17 | 190 | 1.6 | 4.8 | 0.00 | 0.00 | 0.15 | 98 | 1023.3 |
| 20260506173609 | -17 | 158 | 0.0 | 1.6 | 0.00 | 0.00 | 0.15 | 98 | 1023.5 |
| 20260506173109 | -17 | 248 | 0.0 | 0.0 | 0.00 | 0.00 | 0.15 | 98 | 1023.5 |
| 20260506172609 | -17 | 193 | 1.6 | 3.2 | 0.00 | 0.00 | 0.15 | 98 | 1023.5 |
| 20260506172108 | -17 | 132 | 1.6 | 3.2 | 0.00 | 0.00 | 0.15 | 98 | 1023.2 |
| 20260506171608 | -17 | 249 | 0.0 | 1.6 | 0.00 | 0.00 | 0.15 | 98 | 1023.3 |
| 20260506171109 | -17 | 217 | 1.6 | 3.2 | 0.00 | 0.00 | 0.15 | 98 | 1023.2 |
| 20260506170609 | -17 | 209 | 3.2 | 4.8 | 0.00 | 0.00 | 0.15 | 98 | 1023.2 |
| 20260506170109 | -17 | 202 | 1.6 | 3.2 | 0.00 | 0.00 | 0.15 | 98 | 1023.2 |
| 20260506165609 | -17 | 187 | 0.0 | 1.6 | 0.00 | 0.00 | 0.15 | 98 | 1023.2 |
| 20260506165108 | -17 | 199 | 1.6 | 3.2 | 0.00 | 0.00 | 0.15 | 97 | 1023.2 |
| 20260506164608 | -17 | 188 | 0.0 | 0.0 | 0.00 | 0.00 | 0.15 | 98 | 1023.2 |
| 20260506164108 | -17 | 165 | 0.0 | 0.0 | 0.00 | 0.00 | 0.15 | 98 | 1023.2 |
| 20260506163608 | -17 | 206 | 0.0 | 1.6 | 0.00 | 0.00 | 0.15 | 97 | 1023.3 |
| 20260506163108 | -17 | 287 | 1.6 | 3.2 | 0.00 | 0.00 | 0.15 | 98 | 1023.5 |
| 20260506162608 | -17 | 235 | 0.0 | 1.6 | 0.00 | 0.00 | 0.15 | 98 | 1023.3 |
| 20260506162109 | -17 | 257 | 0.0 | 1.6 | 0.00 | 0.00 | 0.15 | 98 | 1023.2 |
| 20260506161608 | -17 | 168 | 1.6 | 4.8 | 0.00 | 0.00 | 0.15 | 98 | 1023.2 |
| 20260506161108 | -17 | 176 | 0.0 | 1.6 | 0.00 | 0.00 | 0.15 | 98 | 1023.2 |
| 20260506160609 | -17 | 187 | 4.8 | 8.0 | 0.00 | 0.00 | 0.15 | 98 | 1023.2 |
| 20260506160108 | -17 | 42 | 3.2 | 4.8 | 0.00 | 0.00 | 0.15 | 98 | 1023.2 |
| 20260506155609 | -17 | 224 | 3.2 | 6.4 | 0.00 | 0.00 | 0.15 | 98 | 1023.3 |
| 20260506155108 | -17 | 216 | 0.0 | 1.6 | 0.00 | 0.00 | 0.15 | 98 | 1023.2 |
| 20260506154609 | -17 | 189 | 0.0 | 1.6 | 0.00 | 0.00 | 0.15 | 98 | 1023.1 |
| 20260506154109 | -17 | 94 | 1.6 | 1.6 | 0.00 | 0.00 | 0.15 | 98 | 1023.2 |
| 20260506153608 | -17 | 230 | 1.6 | 3.2 | 0.00 | 0.00 | 0.15 | 97 | 1023.2 |
| 20260506153110 | -17 | 194 | 0.0 | 1.6 | 0.00 | 0.00 | 0.15 | 98 | 1023.2 |
| 20260506152608 | -17 | 194 | 0.0 | 1.6 | 0.00 | 0.00 | 0.15 | 98 | 1023.2 |
| 20260506152110 | -17 | 206 | 1.6 | 3.2 | 0.00 | 0.00 | 0.15 | 97 | 1023.1 |
| 20260506151608 | -17 | 221 | 3.2 | 6.4 | 0.00 | 0.00 | 0.15 | 97 | 1023.0 |
| 20260506151108 | -17 | 117 | 3.2 | 8.0 | 0.00 | 0.00 | 0.15 | 97 | 1023.1 |
| 20260506150610 | -17 | 238 | 0.0 | 3.2 | 0.00 | 0.00 | 0.15 | 97 | 1023.2 |
| 20260506150108 | -17 | 134 | 0.0 | 1.6 | 0.00 | 0.00 | 0.15 | 97 | 1023.2 |
| 20260506145608 | -17 | 189 | 3.2 | 8.0 | 0.00 | 0.00 | 0.15 | 97 | 1023.2 |
| 20260506145109 | -17 | 182 | 1.6 | 1.6 | 0.00 | 0.00 | 0.15 | 97 | 1023.2 |
| 20260506144608 | -17 | 187 | 1.6 | 3.2 | 0.00 | 0.00 | 0.15 | 97 | 1023.0 |
| 20260506144109 | -17 | 182 | 0.0 | 1.6 | 0.00 | 0.00 | 0.15 | 97 | 1023.3 |
| 20260506143609 | -17 | 183 | 0.0 | 1.6 | 0.00 | 0.00 | 0.15 | 97 | 1023.2 |
| 20260506143108 | -17 | 191 | 0.0 | 0.0 | 0.00 | 0.00 | 0.15 | 97 | 1023.1 |
| 20260506142609 | -17 | 199 | 0.0 | 1.6 | 0.00 | 0.00 | 0.15 | 97 | 1023.1 |
| 20260506142108 | -17 | 180 | 0.0 | 1.6 | 0.00 | 0.00 | 0.15 | 96 | 1022.8 |
| 20260506141609 | -17 | 194 | 0.0 | 1.6 | 0.00 | 0.00 | 0.15 | 96 | 1023.2 |
| 20260506141109 | -17 | 188 | 0.0 | 1.6 | 0.00 | 0.00 | 0.15 | 97 | 1023.1 |
| 20260506140609 | -17 | 169 | 1.6 | 3.2 | 0.00 | 0.00 | 0.15 | 97 | 1023.2 |
| 20260506140109 | -17 | 180 | 0.0 | 1.6 | 0.00 | 0.00 | 0.15 | 97 | 1023.1 |
| 20260506135609 | -17 | 108 | 1.6 | 1.6 | 0.13 | 0.00 | 0.15 | 97 | 1023.0 |
| 20260506135109 | -17 | 196 | 0.0 | 1.6 | 0.13 | 0.00 | 0.15 | 97 | 1023.0 |
| 20260506134609 | -17 | 197 | 1.6 | 1.6 | 0.13 | 0.00 | 0.15 | 97 | 1023.1 |
| 20260506134109 | -17 | 352 | 3.2 | 6.4 | 0.13 | 0.00 | 0.15 | 97 | 1023.1 |
| 20260506133609 | -17 | 196 | 3.2 | 4.8 | 0.13 | 0.00 | 0.15 | 97 | 1023.3 |
| 20260506133109 | -17 | 207 | 3.2 | 4.8 | 0.13 | 0.00 | 0.15 | 97 | 1023.2 |
| 20260506132608 | -17 | 233 | 1.6 | 3.2 | 0.13 | 0.00 | 0.15 | 97 | 1023.3 |
| 20260506132109 | -17 | 274 | 0.0 | 0.0 | 0.10 | 0.00 | 0.13 | 96 | 1023.3 |
| 20260506131608 | -17 | 122 | 3.2 | 3.2 | 0.05 | 0.00 | 0.08 | 82 | 1023.5 |
| 20260506131108 | -17 | 261 | 0.0 | 0.0 | 0.00 | 0.00 | 0.03 | 88 | 1023.5 |
| 20260506130608 | -17 | 166 | 3.2 | 4.8 | 0.00 | 0.00 | 0.03 | 86 | 1023.5 |
| 20260506130109 | -17 | 166 | 3.2 | 4.8 | 0.00 | 0.00 | 0.03 | 86 | 1023.5 |
| 20260506125609 | -17 | 294 | 0.0 | 1.6 | 0.00 | 0.00 | 0.00 | 87 | 1023.2 |
| 20260506125108 | -17 | 185 | 3.2 | 4.8 | 0.00 | 0.00 | 0.00 | 84 | 1023.1 |
| 20260506124609 | -17 | 118 | 3.2 | 6.4 | 0.00 | 0.00 | 0.00 | 83 | 1023.2 |
| 20260506124108 | -17 | 94 | 3.2 | 3.2 | 0.00 | 0.00 | 0.00 | 81 | 1023.2 |
| 20260506123609 | -17 | 89 | 1.6 | 1.6 | 0.00 | 0.00 | 0.00 | 79 | 1023.3 |
| 20260506123109 | -17 | 100 | 1.6 | 3.2 | 0.00 | 0.00 | 0.00 | 80 | 1023.2 |
| 20260506122609 | -17 | 92 | 3.2 | 3.2 | 0.00 | 0.00 | 0.00 | 81 | 1023.2 |
| 20260506122109 | -17 | 116 | 3.2 | 4.8 | 0.00 | 0.00 | 0.00 | 84 | 1023.2 |
| 20260506121609 | -17 | 52 | 1.6 | 3.2 | 0.00 | 0.00 | 0.00 | 81 | 1023.2 |
| 20260506121109 | -17 | 164 | 1.6 | 4.8 | 0.00 | 0.00 | 0.00 | 82 | 1023.0 |
| 20260506120609 | -17 | 156 | 3.2 | 4.8 | 0.00 | 0.00 | 0.00 | 82 | 1023.1 |